createdAt,value
2019-03-18T00:01:53.517Z,85.65
2019-03-18T00:04:25.857Z,85.12
2019-03-18T00:06:58.178Z,84.69
2019-03-18T00:09:31.041Z,83.71
2019-03-18T00:12:03.025Z,83.46
2019-03-18T00:14:35.583Z,83.01
2019-03-18T00:17:09.797Z,82.80
2019-03-18T00:19:43.070Z,81.84
2019-03-18T00:22:15.969Z,81.80
2019-03-18T00:24:48.107Z,81.06
2019-03-18T00:27:20.515Z,81.16
2019-03-18T00:29:52.786Z,80.59
2019-03-18T00:32:25.252Z,80.39
2019-03-18T00:34:57.628Z,80.35
2019-03-18T00:37:30.096Z,79.55
2019-03-18T00:40:02.009Z,79.85
2019-03-18T00:42:34.437Z,79.96
2019-03-18T00:45:14.596Z,79.80
2019-03-18T00:47:42.861Z,79.58
2019-03-18T00:50:19.239Z,79.27
2019-03-18T00:52:51.717Z,79.21
2019-03-18T00:55:23.630Z,79.52
2019-03-18T00:57:56.039Z,79.85
2019-03-18T01:00:28.513Z,79.92
2019-03-18T01:03:00.882Z,80.06
2019-03-18T01:05:33.164Z,80.35
2019-03-18T01:08:05.635Z,80.12
2019-03-18T01:10:37.902Z,80.23
2019-03-18T01:13:10.376Z,80.92
2019-03-18T01:15:42.286Z,80.57
2019-03-18T01:18:16.245Z,80.73
2019-03-18T01:20:49.640Z,80.94
2019-03-18T01:23:22.010Z,81.18
2019-03-18T01:25:55.305Z,81.38
2019-03-18T01:28:27.265Z,81.71
2019-03-18T01:30:59.179Z,82.17
2019-03-18T01:33:31.226Z,82.20
2019-03-18T01:36:03.562Z,82.33
2019-03-18T01:38:35.939Z,82.16
2019-03-18T01:41:08.208Z,82.21
2019-03-18T01:43:40.580Z,82.43
2019-03-18T01:46:12.850Z,82.60
2019-03-18T01:48:45.222Z,82.45
2019-03-18T01:51:17.127Z,82.62
2019-03-18T01:53:49.089Z,82.08
2019-03-18T01:56:21.407Z,82.30
2019-03-18T01:58:53.465Z,82.24
2019-03-18T02:01:25.376Z,81.61
2019-03-18T02:03:58.014Z,81.21
2019-03-18T02:06:29.923Z,79.93
2019-03-18T02:09:02.246Z,80.01
2019-03-18T02:11:34.521Z,79.54
2019-03-18T02:14:06.989Z,79.10
2019-03-18T02:16:39.264Z,78.56
2019-03-18T02:19:11.944Z,78.60
2019-03-18T02:21:44.209Z,78.37
2019-03-18T02:24:16.679Z,78.31
2019-03-18T02:26:49.059Z,78.23
2019-03-18T02:29:21.432Z,77.73
2019-03-18T02:31:53.702Z,77.32
2019-03-18T02:34:26.177Z,77.35
2019-03-18T02:36:58.079Z,77.27
2019-03-18T02:39:30.401Z,77.43
2019-03-18T02:42:02.679Z,77.43
2019-03-18T02:44:35.042Z,77.25
2019-03-18T02:47:07.318Z,77.63
2019-03-18T02:49:39.685Z,77.47
2019-03-18T02:52:12.056Z,77.99
2019-03-18T02:54:44.433Z,78.13
2019-03-18T02:57:16.758Z,78.57
2019-03-18T02:59:49.174Z,78.24
2019-03-18T03:02:21.077Z,78.81
2019-03-18T03:04:53.051Z,78.63
2019-03-18T03:07:25.368Z,78.72
2019-03-18T03:09:57.740Z,79.06
2019-03-18T03:12:30.016Z,79.06
2019-03-18T03:15:02.392Z,79.20
2019-03-18T03:17:35.673Z,79.21
2019-03-18T03:20:10.909Z,79.21
2019-03-18T03:22:43.290Z,79.48
2019-03-18T03:25:15.758Z,79.64
2019-03-18T03:27:47.659Z,79.56
2019-03-18T03:30:19.998Z,79.40
2019-03-18T03:32:52.309Z,79.60
2019-03-18T03:35:24.422Z,79.64
2019-03-18T03:37:56.336Z,79.58
2019-03-18T03:40:28.760Z,79.52
2019-03-18T03:43:01.036Z,79.42
2019-03-18T03:45:33.403Z,79.64
2019-03-18T03:48:05.534Z,79.82
2019-03-18T03:50:38.047Z,79.81
2019-03-18T03:53:10.175Z,79.48
2019-03-18T03:55:42.582Z,79.21
2019-03-18T03:58:14.858Z,79.12
2019-03-18T04:00:47.228Z,79.31
2019-03-18T04:03:19.604Z,79.28
2019-03-18T04:05:53.120Z,79.30
2019-03-18T04:08:25.370Z,79.49
2019-03-18T04:10:57.341Z,79.48
2019-03-18T04:13:29.600Z,79.15
2019-03-18T04:16:01.665Z,79.37
2019-03-18T04:18:33.935Z,79.09
2019-03-18T04:21:06.718Z,78.92
2019-03-18T04:23:38.985Z,79.13
2019-03-18T04:26:11.369Z,78.90
2019-03-18T04:28:43.681Z,79.13
2019-03-18T04:31:15.652Z,79.14
2019-03-18T04:33:47.991Z,79.14
2019-03-18T04:36:20.428Z,79.12
2019-03-18T04:38:52.707Z,79.19
2019-03-18T04:41:25.980Z,79.40
2019-03-18T04:43:58.262Z,79.09
2019-03-18T04:46:37.088Z,79.18
2019-03-18T04:49:11.022Z,79.34
2019-03-18T04:51:49.377Z,79.51
2019-03-18T04:54:23.117Z,79.69
2019-03-18T04:56:55.664Z,79.90
2019-03-18T04:59:28.129Z,80.09
2019-03-18T05:02:00.536Z,80.21
2019-03-18T05:04:32.809Z,80.14
2019-03-18T05:07:05.812Z,80.13
2019-03-18T05:09:38.165Z,80.21
2019-03-18T05:12:10.948Z,80.42
2019-03-18T05:14:42.850Z,80.21
2019-03-18T05:17:26.198Z,80.04
2019-03-18T05:19:48.806Z,80.17
2019-03-18T05:22:21.564Z,80.29
2019-03-18T05:24:53.825Z,80.07
2019-03-18T05:27:26.204Z,79.91
2019-03-18T05:29:58.473Z,79.93
2019-03-18T05:32:30.900Z,79.69
2019-03-18T05:35:02.807Z,79.28
2019-03-18T05:37:35.172Z,79.61
2019-03-18T05:40:09.297Z,79.24
2019-03-18T05:42:41.655Z,79.02
2019-03-18T05:45:13.567Z,78.62
2019-03-18T05:47:45.900Z,78.31
2019-03-18T05:50:18.271Z,77.57
2019-03-18T05:52:50.633Z,77.02
2019-03-18T05:55:22.912Z,76.94
2019-03-18T05:57:55.374Z,76.72
2019-03-18T06:00:27.413Z,76.48
2019-03-18T06:02:59.935Z,76.14
2019-03-18T06:05:32.303Z,75.85
2019-03-18T06:08:04.668Z,75.56
2019-03-18T06:10:37.035Z,75.23
2019-03-18T06:13:09.586Z,75.57
2019-03-18T06:15:41.884Z,75.39
2019-03-18T06:18:13.940Z,74.75
2019-03-18T06:20:46.212Z,74.80
2019-03-18T06:23:19.206Z,74.64
2019-03-18T06:25:51.118Z,74.45
2019-03-18T06:28:23.432Z,74.01
2019-03-18T06:30:55.808Z,73.59
2019-03-18T06:33:28.180Z,73.90
2019-03-18T06:36:00.446Z,74.35
2019-03-18T06:38:32.915Z,73.78
2019-03-18T06:41:06.423Z,73.97
2019-03-18T06:43:38.838Z,73.96
2019-03-18T06:46:11.162Z,73.88
2019-03-18T06:48:43.132Z,73.79
2019-03-18T06:51:15.391Z,73.59
2019-03-18T06:53:47.872Z,73.40
2019-03-18T06:56:20.138Z,73.02
2019-03-18T06:58:52.624Z,72.35
2019-03-18T07:01:24.886Z,72.26
2019-03-18T07:03:57.099Z,71.96
2019-03-18T07:06:29.419Z,71.89
2019-03-18T07:09:03.328Z,71.29
2019-03-18T07:11:35.603Z,70.96
2019-03-18T07:14:07.977Z,70.31
2019-03-18T07:16:40.247Z,70.58
2019-03-18T07:19:12.618Z,70.66
2019-03-18T07:21:45.098Z,69.95
2019-03-18T07:24:18.100Z,69.69
2019-03-18T07:26:50.448Z,69.18
2019-03-18T07:29:22.926Z,68.57
2019-03-18T07:31:56.604Z,68.94
2019-03-18T07:34:29.107Z,68.90
2019-03-18T07:37:01.472Z,69.52
2019-03-18T07:39:33.538Z,69.49
2019-03-18T07:42:06.751Z,69.38
2019-03-18T07:44:39.106Z,68.94
2019-03-18T07:47:11.366Z,67.92
2019-03-18T07:49:43.737Z,68.47
2019-03-18T07:52:16.013Z,68.03
2019-03-18T07:54:48.387Z,68.15
2019-03-18T07:57:20.653Z,68.38
2019-03-18T07:59:53.021Z,69.40
2019-03-18T08:02:25.149Z,69.44
2019-03-18T08:04:57.662Z,68.73
2019-03-18T08:07:29.577Z,67.69
2019-03-18T08:10:02.522Z,67.36
2019-03-18T08:12:35.802Z,66.17
2019-03-18T08:15:13.213Z,66.87
2019-03-18T08:17:45.568Z,65.80
2019-03-18T08:20:17.941Z,66.34
2019-03-18T08:22:50.210Z,65.92
2019-03-18T08:25:23.097Z,66.33
2019-03-18T08:27:55.357Z,65.11
2019-03-18T08:30:27.736Z,65.35
2019-03-18T08:32:59.647Z,65.58
2019-03-18T08:35:32.269Z,66.65
2019-03-18T08:38:04.545Z,66.52
2019-03-18T08:40:36.988Z,66.25
2019-03-18T08:43:09.287Z,65.73
2019-03-18T08:45:41.758Z,66.07
2019-03-18T08:48:14.032Z,66.03
2019-03-18T08:50:46.406Z,64.06
2019-03-18T08:53:18.777Z,63.71
2019-03-18T08:55:51.143Z,62.85
2019-03-18T08:58:24.721Z,62.53
2019-03-18T09:00:57.221Z,61.98
2019-03-18T09:03:29.589Z,61.71
2019-03-18T09:06:02.084Z,62.45
2019-03-18T09:08:34.333Z,61.95
2019-03-18T09:11:06.871Z,62.32
2019-03-18T09:13:38.780Z,62.34
2019-03-18T09:16:12.581Z,61.63
2019-03-18T09:18:44.848Z,61.48
2019-03-18T09:21:17.321Z,62.24
2019-03-18T09:23:49.697Z,62.12
2019-03-18T09:26:22.791Z,62.64
2019-03-18T09:28:55.800Z,62.31
2019-03-18T09:31:28.238Z,62.31
2019-03-18T09:34:00.254Z,61.82
2019-03-18T09:36:32.581Z,60.37
2019-03-18T09:39:06.283Z,59.88
2019-03-18T09:41:38.658Z,59.81
2019-03-18T09:44:11.030Z,59.40
2019-03-18T09:46:43.399Z,58.57
2019-03-18T09:49:21.492Z,59.50
2019-03-18T09:51:49.270Z,59.46
2019-03-18T09:54:21.185Z,59.95
2019-03-18T09:56:53.150Z,60.31
2019-03-18T09:59:26.585Z,60.18
2019-03-18T10:02:00.241Z,59.37
2019-03-18T10:04:32.459Z,58.76
2019-03-18T10:07:04.838Z,58.48
2019-03-18T10:09:37.099Z,57.30
2019-03-18T10:12:09.478Z,57.99
2019-03-18T10:14:41.843Z,57.22
2019-03-18T10:17:13.846Z,56.65
2019-03-18T10:19:46.176Z,57.46
2019-03-18T10:22:18.764Z,57.38
2019-03-18T10:24:50.670Z,57.25
2019-03-18T10:27:23.084Z,57.51
2019-03-18T10:29:55.458Z,58.36
2019-03-18T10:32:27.840Z,58.07
2019-03-18T10:35:00.323Z,58.00
2019-03-18T10:37:32.683Z,58.54
2019-03-18T10:40:06.894Z,58.84
2019-03-18T10:42:39.273Z,58.80
2019-03-18T10:45:14.306Z,58.78
2019-03-18T10:47:46.778Z,58.78
2019-03-18T10:50:20.275Z,59.39
2019-03-18T10:52:52.683Z,59.20
2019-03-18T10:55:24.918Z,58.99
2019-03-18T10:57:57.255Z,58.75
2019-03-18T11:00:29.622Z,58.93
2019-03-18T11:03:01.995Z,58.16
2019-03-18T11:05:34.385Z,57.51
2019-03-18T11:08:06.582Z,57.51
2019-03-18T11:10:38.919Z,58.14
2019-03-18T11:13:11.292Z,58.20
2019-03-18T11:15:43.203Z,57.95
2019-03-18T11:18:15.616Z,56.20
2019-03-18T11:20:47.995Z,56.13
2019-03-18T11:23:20.367Z,54.95
2019-03-18T11:25:55.401Z,54.77
2019-03-18T11:28:27.767Z,54.35
2019-03-18T11:30:59.678Z,55.75
2019-03-18T11:33:32.715Z,56.41
2019-03-18T11:36:05.096Z,56.72
2019-03-18T11:38:37.469Z,56.73
2019-03-18T11:41:09.840Z,55.96
2019-03-18T11:43:42.417Z,55.53
2019-03-18T11:46:14.787Z,54.14
2019-03-18T11:48:47.155Z,53.53
2019-03-18T11:51:19.532Z,52.93
2019-03-18T11:53:52.015Z,51.88
2019-03-18T11:56:24.590Z,52.16
2019-03-18T11:58:57.058Z,51.78
2019-03-18T12:01:29.941Z,50.45
2019-03-18T12:04:02.407Z,50.76
2019-03-18T12:06:34.892Z,50.43
2019-03-18T12:09:08.392Z,50.30
2019-03-18T12:11:40.964Z,51.05
2019-03-18T12:14:13.440Z,50.72
2019-03-18T12:16:45.700Z,51.15
2019-03-18T12:19:18.141Z,52.35
2019-03-18T12:21:50.454Z,51.67
2019-03-18T12:24:23.533Z,50.86
2019-03-18T12:26:55.918Z,51.06
2019-03-18T12:29:28.290Z,51.42
2019-03-18T12:32:00.541Z,51.21
2019-03-18T12:34:32.922Z,50.84
2019-03-18T12:37:05.196Z,50.69
2019-03-18T12:39:37.169Z,50.68
2019-03-18T12:42:10.166Z,51.34
2019-03-18T12:44:42.509Z,50.61
2019-03-18T12:47:14.881Z,50.03
2019-03-18T12:49:47.270Z,49.56
2019-03-18T12:52:19.638Z,49.13
2019-03-18T12:54:52.186Z,49.17
2019-03-18T12:57:24.713Z,49.43
2019-03-18T12:59:57.402Z,49.11
2019-03-18T13:02:29.538Z,49.47
2019-03-18T13:05:01.906Z,49.03
2019-03-18T13:07:34.275Z,48.90
2019-03-18T13:10:11.053Z,48.89
2019-03-18T13:12:43.430Z,49.60
2019-03-18T13:15:22.249Z,50.10
2019-03-18T13:17:54.844Z,49.21
2019-03-18T13:20:28.369Z,48.70
2019-03-18T13:23:00.685Z,49.88
2019-03-18T13:25:33.055Z,50.46
2019-03-18T13:28:05.431Z,51.42
2019-03-18T13:30:37.812Z,50.44
2019-03-18T13:33:10.184Z,51.10
2019-03-18T13:35:43.231Z,51.21
2019-03-18T13:38:15.788Z,51.81
2019-03-18T13:40:48.115Z,52.66
2019-03-18T13:43:20.489Z,52.21
2019-03-18T13:45:55.606Z,51.90
2019-03-18T13:48:26.772Z,52.14
2019-03-18T13:50:59.140Z,51.93
2019-03-18T13:53:31.402Z,52.37
2019-03-18T13:56:03.782Z,52.46
2019-03-18T13:58:36.260Z,52.46
2019-03-18T14:01:08.615Z,52.17
2019-03-18T14:03:40.999Z,52.61
2019-03-18T14:06:13.383Z,52.66
2019-03-18T14:08:46.863Z,52.73
2019-03-18T14:11:20.988Z,52.44
2019-03-18T14:13:53.379Z,52.22
2019-03-18T14:16:25.735Z,52.13
2019-03-18T14:18:58.086Z,52.94
2019-03-18T14:21:33.406Z,51.92
2019-03-18T14:24:04.472Z,51.77
2019-03-18T14:26:36.856Z,51.95
2019-03-18T14:29:09.228Z,52.04
2019-03-18T14:31:43.768Z,53.01
2019-03-18T14:34:15.764Z,51.99
2019-03-18T14:36:48.179Z,52.28
2019-03-18T14:39:20.604Z,52.39
2019-03-18T14:41:53.206Z,51.50
2019-03-18T14:44:25.365Z,50.23
2019-03-18T14:46:58.286Z,49.84
2019-03-18T14:49:30.665Z,49.04
2019-03-18T14:52:05.695Z,48.59
2019-03-18T14:54:38.670Z,48.71
2019-03-18T14:57:11.151Z,45.26
2019-03-18T14:59:43.519Z,38.94
2019-03-18T15:02:15.992Z,45.15
2019-03-18T15:04:48.261Z,47.38
2019-03-18T15:07:20.237Z,45.22
2019-03-18T15:09:52.603Z,45.80
2019-03-18T15:12:24.967Z,40.90
2019-03-18T15:14:57.342Z,39.56
2019-03-18T15:17:29.724Z,37.83
2019-03-18T15:20:02.745Z,37.38
2019-03-18T15:22:35.183Z,36.36
2019-03-18T15:25:24.113Z,35.87
2019-03-18T15:27:59.970Z,33.90
2019-03-18T15:30:36.602Z,35.65
2019-03-18T15:33:10.171Z,36.00
2019-03-18T15:38:43.456Z,36.67
2019-03-18T15:41:23.008Z,37.80
2019-03-18T15:44:07.588Z,36.90
2019-03-18T15:46:48.108Z,36.89
2019-03-18T15:49:21.129Z,37.30
2019-03-18T15:51:54.658Z,39.87
2019-03-18T15:54:54.103Z,41.56
2019-03-18T15:57:29.870Z,43.38
2019-03-18T15:59:59.383Z,44.79
2019-03-18T16:02:31.712Z,45.74
2019-03-18T16:05:03.701Z,46.76
2019-03-18T16:07:36.010Z,47.49
2019-03-18T16:10:12.901Z,47.88
2019-03-18T16:12:46.354Z,48.75
2019-03-18T16:15:19.775Z,49.08
2019-03-18T16:17:52.151Z,49.32
2019-03-18T16:20:27.013Z,50.09
2019-03-18T16:22:59.333Z,50.63
2019-03-18T16:25:32.020Z,50.64
2019-03-18T16:28:04.186Z,51.41
2019-03-18T16:30:36.164Z,51.24
2019-03-18T16:33:08.518Z,51.70
2019-03-18T16:35:40.885Z,51.68
2019-03-18T16:38:12.798Z,51.49
2019-03-18T16:40:45.232Z,52.58
2019-03-18T16:43:17.592Z,52.92
2019-03-18T16:45:49.966Z,53.15
2019-03-18T16:48:22.233Z,53.09
2019-03-18T16:50:54.617Z,53.92
2019-03-18T16:53:27.448Z,55.11
2019-03-18T16:55:59.875Z,56.91
2019-03-18T16:58:32.556Z,57.55
2019-03-18T17:01:05.166Z,58.02
2019-03-18T17:03:37.539Z,58.42
2019-03-18T17:06:10.084Z,58.95
2019-03-18T17:08:42.187Z,59.79
2019-03-18T17:11:14.612Z,59.99
2019-03-18T17:13:46.983Z,60.04
2019-03-18T17:16:19.407Z,60.39
2019-03-18T17:18:51.721Z,60.70
2019-03-18T17:21:24.156Z,60.76
2019-03-18T17:23:56.468Z,61.21
2019-03-18T17:26:28.450Z,61.69
2019-03-18T17:29:00.807Z,62.03
2019-03-18T17:31:34.228Z,62.62
2019-03-18T17:34:07.160Z,61.11
2019-03-18T17:36:39.556Z,60.71
2019-03-18T17:39:14.417Z,60.58
2019-03-18T17:41:45.065Z,60.41
2019-03-18T17:44:17.285Z,59.23
2019-03-18T17:46:49.872Z,58.75
2019-03-18T17:49:22.346Z,58.91
2019-03-18T17:51:54.811Z,58.78
2019-03-18T17:54:27.081Z,58.75
2019-03-18T17:57:07.296Z,59.47
2019-03-18T17:59:34.599Z,61.75
2019-03-18T18:02:07.093Z,62.49
2019-03-18T18:04:39.088Z,62.98
2019-03-18T18:07:11.610Z,63.59
2019-03-18T18:09:43.980Z,63.98
2019-03-18T18:12:16.353Z,64.17
2019-03-18T18:14:48.738Z,64.98
2019-03-18T18:17:21.190Z,65.83
2019-03-18T18:19:53.574Z,65.76
2019-03-18T18:22:26.046Z,66.16
2019-03-18T18:24:58.418Z,66.47
2019-03-18T18:27:30.795Z,66.39
2019-03-18T18:30:03.152Z,66.48
2019-03-18T18:32:36.650Z,65.95
2019-03-18T18:35:10.937Z,66.02
2019-03-18T18:37:43.341Z,66.00
2019-03-18T18:40:30.257Z,66.20
2019-03-18T18:43:02.634Z,66.35
2019-03-18T18:45:35.010Z,66.31
2019-03-18T18:48:07.388Z,66.61
2019-03-18T18:50:39.745Z,66.65
2019-03-18T18:53:11.972Z,66.35
2019-03-18T18:55:44.383Z,66.09
2019-03-18T18:58:16.773Z,65.92
2019-03-18T19:00:49.024Z,65.15
2019-03-18T19:03:22.438Z,64.82
2019-03-18T19:05:57.253Z,64.73
2019-03-18T19:08:31.255Z,64.49
2019-03-18T19:11:05.196Z,64.23
2019-03-18T19:13:42.283Z,64.32
2019-03-18T19:16:17.444Z,64.38
2019-03-18T19:18:49.983Z,63.44
2019-03-18T19:21:22.349Z,63.65
2019-03-18T19:23:54.728Z,63.90
2019-03-18T19:26:27.087Z,64.05
2019-03-18T19:29:00.098Z,63.73
2019-03-18T19:31:32.444Z,63.91
2019-03-18T19:34:05.231Z,64.24
2019-03-18T19:36:38.729Z,64.56
2019-03-18T19:39:11.097Z,64.76
2019-03-18T19:41:43.872Z,65.09
2019-03-18T19:44:17.474Z,65.49
2019-03-18T19:46:50.391Z,65.52
2019-03-18T19:49:22.745Z,65.51
2019-03-18T19:51:55.113Z,65.43
2019-03-18T19:54:27.099Z,65.60
2019-03-18T19:56:59.443Z,65.46
2019-03-18T19:59:31.915Z,65.45
2019-03-18T20:02:04.299Z,65.27
2019-03-18T20:04:36.278Z,64.86
2019-03-18T20:07:08.627Z,64.68
2019-03-18T20:09:40.997Z,64.50
2019-03-18T20:12:12.918Z,64.39
2019-03-18T20:14:45.547Z,64.59
2019-03-18T20:17:17.866Z,64.77
2019-03-18T20:19:50.181Z,64.83
2019-03-18T20:22:22.550Z,64.81
2019-03-18T20:24:54.925Z,64.64
2019-03-18T20:27:27.286Z,64.78
2019-03-18T20:30:00.839Z,65.22
2019-03-18T20:32:33.581Z,65.59
2019-03-18T20:35:12.920Z,65.77
2019-03-18T20:37:45.407Z,65.92
2019-03-18T20:40:18.791Z,65.98
2019-03-18T20:42:59.830Z,66.24
2019-03-18T20:45:34.693Z,66.39
2019-03-18T20:48:07.108Z,66.74
2019-03-18T20:50:39.638Z,66.78
2019-03-18T20:53:12.009Z,66.87
2019-03-18T20:55:44.436Z,66.90
2019-03-18T20:58:16.747Z,66.98
2019-03-18T21:00:59.877Z,66.96
2019-03-18T21:03:32.350Z,67.10
2019-03-18T21:06:05.027Z,67.09
2019-03-18T21:08:37.286Z,67.28
2019-03-18T21:11:12.374Z,67.48
2019-03-18T21:13:56.474Z,67.50
2019-03-18T21:16:21.570Z,67.53
2019-03-18T21:18:53.845Z,67.70
2019-03-18T21:21:25.846Z,67.84
2019-03-18T21:23:58.191Z,68.14
2019-03-18T21:26:32.301Z,68.25
2019-03-18T21:29:04.673Z,68.02
2019-03-18T21:31:37.135Z,68.24
2019-03-18T21:34:09.506Z,68.52
2019-03-18T21:36:41.980Z,68.82
2019-03-18T21:39:14.568Z,68.85
2019-03-18T21:41:47.878Z,69.20
2019-03-18T21:44:20.327Z,69.25
2019-03-18T21:46:52.700Z,69.50
2019-03-18T21:49:24.970Z,69.62
2019-03-18T21:51:57.653Z,69.71
2019-03-18T21:54:33.988Z,69.79
2019-03-18T21:57:04.540Z,69.90
2019-03-18T21:59:37.019Z,70.11
2019-03-18T22:02:09.451Z,70.46
2019-03-18T22:04:41.775Z,70.58
2019-03-18T22:07:21.808Z,70.79
2019-03-18T22:10:02.712Z,71.35
2019-03-18T22:13:08.782Z,71.26
2019-03-18T22:15:45.027Z,71.80
2019-03-18T22:18:17.488Z,72.06
2019-03-18T22:20:49.858Z,72.39
2019-03-18T22:23:22.226Z,72.07
2019-03-18T22:25:54.375Z,72.05
2019-03-18T22:28:26.446Z,71.82
2019-03-18T22:30:58.729Z,71.63
2019-03-18T22:33:36.144Z,71.86
2019-03-18T22:36:09.016Z,71.86
2019-03-18T22:38:41.691Z,71.75
2019-03-18T22:41:14.045Z,71.38
2019-03-18T22:43:49.894Z,71.26
2019-03-18T22:46:22.288Z,71.00
2019-03-18T22:48:54.661Z,70.85
2019-03-18T22:51:28.156Z,70.72
2019-03-18T22:54:00.521Z,70.56
2019-03-18T22:56:32.951Z,70.44
2019-03-18T22:59:04.937Z,70.32
2019-03-18T23:01:37.227Z,70.32
2019-03-18T23:04:09.203Z,70.12
2019-03-18T23:06:41.560Z,70.01
2019-03-18T23:09:14.054Z,69.96
2019-03-18T23:11:46.417Z,70.31
2019-03-18T23:14:18.881Z,70.52
2019-03-18T23:16:51.159Z,70.76
2019-03-18T23:19:23.624Z,71.07
2019-03-18T23:21:56.000Z,71.11
2019-03-18T23:24:28.368Z,70.98
2019-03-18T23:27:00.302Z,70.98
2019-03-18T23:29:32.698Z,70.99
2019-03-18T23:32:04.628Z,70.90
2019-03-18T23:34:37.137Z,71.01
2019-03-18T23:37:09.517Z,71.23
2019-03-18T23:39:41.508Z,71.56
2019-03-18T23:42:13.855Z,71.90
2019-03-18T23:44:46.223Z,72.20
2019-03-18T23:47:18.602Z,72.32
2019-03-18T23:49:51.074Z,72.41
2019-03-18T23:52:22.985Z,72.40
2019-03-18T23:54:55.411Z,72.42
2019-03-18T23:57:27.775Z,72.60
